Time;durP1;ratioP1;P1;durP2;ratioP2;P2;SDS_P1;SDS_P2;PMS_P1;PMS_P2;Temp;Humidity;BMP_temperature;BMP_pressure;BME280_temperature;BME280_humidity;BME280_pressure;Samples;Min_cycle;Max_cycle;Signal;HPM_P1;HPM_P2
2021/11/01 00:02:21;;;;;;;4.20;3.90;;;14.40;99.90;;;;;;5092557;28;20221;-47
2021/11/01 00:04:47;;;;;;;4.40;4.00;;;14.40;99.90;;;;;;5089368;28;20240;-44
2021/11/01 00:07:14;;;;;;;3.97;3.67;;;14.40;99.90;;;;;;5101931;28;20193;-47
2021/11/01 00:09:41;;;;;;;5.93;3.67;;;14.40;99.90;;;;;;5080784;28;20201;-44
2021/11/01 00:12:08;;;;;;;3.00;2.80;;;14.40;99.90;;;;;;5103115;28;20205;-46
2021/11/01 00:14:35;;;;;;;3.50;3.20;;;14.40;99.90;;;;;;5087659;28;20228;-48
2021/11/01 00:17:03;;;;;;;3.43;2.40;;;14.50;99.90;;;;;;5103595;28;20545;-47
2021/11/01 00:19:30;;;;;;;2.60;2.40;;;14.50;99.90;;;;;;5094784;28;20209;-45
2021/11/01 00:21:57;;;;;;;2.10;1.90;;;14.60;99.90;;;;;;5098583;28;20217;-45
2021/11/01 00:24:24;;;;;;;2.37;2.00;;;14.70;99.90;;;;;;5083237;28;20700;-43
2021/11/01 00:26:50;;;;;;;2.50;2.10;;;14.90;99.90;;;;;;5101181;28;20657;-46
2021/11/01 00:29:17;;;;;;;1.77;1.67;;;15.00;99.90;;;;;;5082133;28;20202;-44
2021/11/01 00:31:44;;;;;;;5.17;2.10;;;15.10;99.90;;;;;;5101135;28;20806;-44
2021/11/01 00:34:10;;;;;;;1.80;1.70;;;15.20;99.90;;;;;;5092305;28;21097;-44
2021/11/01 00:36:38;;;;;;;1.50;1.40;;;15.30;99.90;;;;;;5098587;28;20193;-44
2021/11/01 00:39:05;;;;;;;1.77;1.67;;;15.40;99.90;;;;;;5084665;28;20217;-43
2021/11/01 00:41:32;;;;;;;1.90;1.80;;;15.40;99.90;;;;;;5094020;28;20553;-48
2021/11/01 00:44:00;;;;;;;1.63;1.53;;;15.40;99.90;;;;;;5090501;28;20232;-41
2021/11/01 00:46:26;;;;;;;1.80;1.70;;;15.40;99.90;;;;;;5094907;28;20209;-42
2021/11/01 00:48:53;;;;;;;1.57;1.47;;;15.40;99.90;;;;;;5101862;28;20604;-44
2021/11/01 00:51:20;;;;;;;2.47;1.77;;;15.40;99.90;;;;;;5096457;28;20882;-44
2021/11/01 00:53:49;;;;;;;1.57;1.47;;;15.40;99.90;;;;;;5097504;28;20217;-45
2021/11/01 00:56:17;;;;;;;2.17;1.90;;;15.40;99.90;;;;;;5085934;28;20258;-45
2021/11/01 00:58:44;;;;;;;1.87;1.70;;;15.30;99.90;;;;;;5101714;28;20201;-46
2021/11/01 01:01:14;;;;;;;2.77;2.00;;;15.30;99.90;;;;;;5085532;28;20197;-44
2021/11/01 01:03:42;;;;;;;2.77;1.80;;;15.30;99.90;;;;;;5106680;28;20557;-46
2021/11/01 01:06:08;;;;;;;2.00;1.80;;;15.20;99.90;;;;;;5098154;28;21624;-46
2021/11/01 01:08:35;;;;;;;1.67;1.40;;;15.10;99.90;;;;;;5102166;28;20292;-45
2021/11/01 01:11:04;;;;;;;2.17;1.57;;;15.00;99.90;;;;;;5085633;28;20198;-43
2021/11/01 01:13:35;;;;;;;2.73;1.30;;;14.90;99.90;;;;;;5091876;28;20865;-47
2021/11/01 01:16:09;;;;;;;3.40;1.37;;;14.90;99.90;;;;;;5091325;28;20209;-45
2021/11/01 01:18:38;;;;;;;5.70;1.53;;;14.80;99.90;;;;;;5099982;28;20298;-44
2021/11/01 01:22:12;;;;;;;5.20;1.37;;;14.70;99.90;;;;;;5103045;28;20190;-47
2021/11/01 01:24:00;;;;;;;6.37;1.37;;;14.70;99.90;;;;;;5093496;28;20270;-47
2021/11/01 01:26:29;;;;;;;2.60;1.23;;;14.60;99.90;;;;;;5091292;28;20201;-47
2021/11/01 01:28:56;;;;;;;4.70;1.67;;;14.60;99.90;;;;;;5097838;28;20585;-46
2021/11/01 01:31:23;;;;;;;4.80;1.40;;;14.50;99.90;;;;;;5093290;28;20202;-44
2021/11/01 01:33:50;;;;;;;6.13;2.00;;;14.40;99.90;;;;;;5105521;28;20232;-45
2021/11/01 01:36:17;;;;;;;15.10;2.07;;;14.40;99.90;;;;;;5104263;28;20902;-45
2021/11/01 01:38:46;;;;;;;7.07;1.57;;;14.30;99.90;;;;;;5101398;28;20201;-47
2021/11/01 01:41:14;;;;;;;6.43;1.50;;;14.20;99.90;;;;;;5089032;28;24428;-46
2021/11/01 01:43:46;;;;;;;5.73;1.60;;;14.10;99.90;;;;;;5103663;28;20225;-45
2021/11/01 01:46:13;;;;;;;5.67;1.50;;;14.00;99.90;;;;;;5077232;28;20844;-45
2021/11/01 01:48:41;;;;;;;10.23;1.80;;;14.00;99.90;;;;;;5082742;28;20210;-45
2021/11/01 01:51:08;;;;;;;7.87;1.90;;;13.90;99.90;;;;;;5100824;28;20904;-45
2021/11/01 01:53:35;;;;;;;9.53;1.70;;;13.90;99.90;;;;;;5100982;28;20688;-44
2021/11/01 01:56:02;;;;;;;7.70;1.80;;;13.80;99.90;;;;;;5102653;28;20677;-47
2021/11/01 01:58:36;;;;;;;7.03;1.50;;;13.80;99.90;;;;;;5092286;28;20685;-48
2021/11/01 02:01:08;;;;;;;6.40;1.50;;;13.70;99.90;;;;;;5078138;28;20939;-44
2021/11/01 02:03:36;;;;;;;10.23;2.20;;;13.70;99.90;;;;;;5093557;28;20668;-44
2021/11/01 02:06:07;;;;;;;7.20;1.60;;;13.60;99.90;;;;;;5096275;28;20209;-44
2021/11/01 02:08:35;;;;;;;10.47;1.87;;;13.60;99.90;;;;;;5100026;28;20197;-45
2021/11/01 02:11:09;;;;;;;8.17;1.60;;;13.60;99.90;;;;;;5093325;28;20205;-43
2021/11/01 02:13:38;;;;;;;8.40;1.77;;;13.50;99.90;;;;;;5093183;28;20580;-44
2021/11/01 02:16:06;;;;;;;12.20;2.30;;;13.50;99.90;;;;;;5093899;28;20193;-44
2021/11/01 02:18:36;;;;;;;8.23;1.80;;;13.50;99.90;;;;;;5099473;28;20193;-47
2021/11/01 02:21:16;;;;;;;6.67;1.70;;;13.40;99.90;;;;;;5089737;28;20224;-46
2021/11/01 02:23:50;;;;;;;7.03;1.43;;;13.40;99.90;;;;;;5099610;28;20594;-44
2021/11/01 02:26:23;;;;;;;7.60;1.90;;;13.30;99.90;;;;;;5099554;28;20205;-43
2021/11/01 02:28:49;;;;;;;6.27;1.80;;;13.30;99.90;;;;;;5094799;28;20217;-43
2021/11/01 02:31:19;;;;;;;19.57;2.77;;;13.30;99.90;;;;;;5090984;28;20194;-45
2021/11/01 02:33:48;;;;;;;6.20;1.93;;;13.20;99.90;;;;;;5105175;28;20292;-43
2021/11/01 02:36:16;;;;;;;12.07;1.67;;;13.20;99.90;;;;;;5090441;28;20256;-45
2021/11/01 02:38:44;;;;;;;8.90;1.87;;;13.20;99.90;;;;;;5098595;28;20202;-46
2021/11/01 02:41:20;;;;;;;8.87;1.70;;;13.10;99.90;;;;;;5094334;28;20199;-42
2021/11/01 02:43:51;;;;;;;10.30;1.80;;;13.10;99.90;;;;;;5095379;28;20274;-42
2021/11/01 02:46:18;;;;;;;9.33;1.60;;;13.10;99.90;;;;;;5095927;28;20243;-43
2021/11/01 02:48:47;;;;;;;8.77;1.50;;;13.10;99.90;;;;;;5105301;28;20208;-42
2021/11/01 02:51:14;;;;;;;9.60;1.97;;;13.10;99.90;;;;;;5089980;28;20337;-45
2021/11/01 02:53:41;;;;;;;8.17;2.47;;;13.00;99.90;;;;;;5099602;28;20563;-47
2021/11/01 02:56:09;;;;;;;9.10;1.60;;;13.00;99.90;;;;;;5096446;28;20200;-44
2021/11/01 02:58:39;;;;;;;6.97;1.40;;;13.00;99.90;;;;;;5105219;28;20208;-42
2021/11/01 03:01:06;;;;;;;11.63;2.23;;;13.00;99.90;;;;;;5085817;28;20193;-46
2021/11/01 03:03:33;;;;;;;8.40;2.03;;;13.00;99.90;;;;;;5100254;28;20213;-46
2021/11/01 03:06:01;;;;;;;10.10;1.70;;;13.00;99.90;;;;;;5092161;28;20332;-43
2021/11/01 03:08:29;;;;;;;8.87;1.77;;;12.90;99.90;;;;;;5103059;28;20701;-43
2021/11/01 03:10:57;;;;;;;8.80;1.80;;;12.90;99.90;;;;;;5099138;28;20204;-44
2021/11/01 03:13:26;;;;;;;5.67;2.07;;;12.80;99.90;;;;;;5101957;28;20197;-46
2021/11/01 03:15:56;;;;;;;6.10;1.70;;;12.80;99.90;;;;;;5092535;28;20197;-44
2021/11/01 03:18:26;;;;;;;9.37;1.73;;;12.80;99.90;;;;;;5095416;28;20212;-42
2021/11/01 03:20:55;;;;;;;9.53;2.33;;;12.70;99.90;;;;;;5100044;28;20329;-43
2021/11/01 03:23:26;;;;;;;10.13;1.97;;;12.60;99.90;;;;;;5089820;28;20224;-47
2021/11/01 03:25:57;;;;;;;10.33;1.90;;;12.60;99.90;;;;;;5097809;28;20272;-44
2021/11/01 03:28:25;;;;;;;12.70;2.23;;;12.60;99.90;;;;;;5091883;28;20205;-45
2021/11/01 03:30:56;;;;;;;13.53;2.20;;;12.50;99.90;;;;;;5094582;28;20549;-44
2021/11/01 03:33:24;;;;;;;13.53;2.13;;;12.50;99.90;;;;;;5086027;28;20205;-42
2021/11/01 03:35:52;;;;;;;9.03;1.57;;;12.40;99.90;;;;;;5098907;28;20664;-43
2021/11/01 03:38:20;;;;;;;13.03;1.97;;;12.40;99.90;;;;;;5085833;28;20259;-43
2021/11/01 03:40:47;;;;;;;15.43;2.30;;;12.40;99.90;;;;;;5098805;28;20584;-41
2021/11/01 03:43:25;;;;;;;9.40;2.13;;;12.40;99.90;;;;;;5093577;28;20229;-42
2021/11/01 03:45:52;;;;;;;9.20;1.90;;;12.30;99.90;;;;;;5098137;28;20208;-41
2021/11/01 03:48:21;;;;;;;10.73;1.83;;;12.20;99.90;;;;;;5085554;28;20301;-44
2021/11/01 03:50:58;;;;;;;11.63;2.20;;;12.30;99.90;;;;;;5102442;28;20201;-43
2021/11/01 03:53:25;;;;;;;14.23;2.07;;;12.20;99.90;;;;;;5090366;28;20291;-43
2021/11/01 03:55:52;;;;;;;6.47;2.20;;;12.20;99.90;;;;;;5101794;28;20201;-43
2021/11/01 03:58:19;;;;;;;8.53;2.20;;;12.20;99.90;;;;;;5096883;28;20205;-43
2021/11/01 04:00:47;;;;;;;6.90;1.87;;;12.10;99.90;;;;;;5098138;28;20221;-41
2021/11/01 04:03:14;;;;;;;13.30;2.90;;;12.10;99.90;;;;;;5090805;28;20898;-44
2021/11/01 04:05:43;;;;;;;9.93;1.93;;;12.10;99.90;;;;;;5094470;28;20900;-45
2021/11/01 04:08:09;;;;;;;10.00;2.50;;;12.10;99.90;;;;;;5096474;28;20193;-52
2021/11/01 04:10:36;;;;;;;11.03;2.33;;;12.10;99.90;;;;;;5089964;28;20205;-51
2021/11/01 04:13:03;;;;;;;11.00;2.40;;;12.00;99.90;;;;;;5099679;28;20317;-49
2021/11/01 04:15:36;;;;;;;7.87;1.93;;;12.00;99.90;;;;;;5098783;28;20232;-52
2021/11/01 04:18:05;;;;;;;6.83;2.00;;;12.00;99.90;;;;;;5091079;28;20721;-54
2021/11/01 04:20:48;;;;;;;6.50;1.50;;;12.00;99.90;;;;;;5096879;28;20193;-53
2021/11/01 04:23:17;;;;;;;9.43;1.80;;;11.90;99.90;;;;;;5095235;28;20201;-49
2021/11/01 04:25:44;;;;;;;11.80;2.27;;;11.90;99.90;;;;;;5084659;28;20197;-55
2021/11/01 04:28:10;;;;;;;9.93;2.70;;;11.90;99.90;;;;;;5092480;28;20786;-52
2021/11/01 04:30:39;;;;;;;14.57;4.67;;;11.90;99.90;;;;;;5098592;28;20212;-52
2021/11/01 04:33:08;;;;;;;10.97;3.10;;;11.90;99.90;;;;;;5084212;28;20200;-52
2021/11/01 04:35:36;;;;;;;11.63;3.10;;;11.90;99.90;;;;;;5095750;28;20281;-53
2021/11/01 04:38:08;;;;;;;9.23;3.50;;;11.90;99.90;;;;;;5092688;28;20258;-51
2021/11/01 04:40:47;;;;;;;10.67;2.83;;;11.90;99.90;;;;;;5090981;28;20266;-48
2021/11/01 04:54:22;;;;;;;9.27;1.73;;;11.80;99.90;;;;;;5094801;28;20220;-52
2021/11/01 04:56:51;;;;;;;9.03;2.60;;;11.80;99.90;;;;;;5087429;28;20202;-50
2021/11/01 04:59:18;;;;;;;10.77;2.27;;;11.80;99.90;;;;;;5098579;28;20224;-51
2021/11/01 05:01:48;;;;;;;11.50;2.97;;;11.70;99.90;;;;;;5090163;28;20197;-50
2021/11/01 05:04:16;;;;;;;5.83;2.07;;;11.70;99.90;;;;;;5080808;28;20315;-49
2021/11/01 05:06:48;;;;;;;9.93;2.97;;;11.70;99.90;;;;;;5090105;28;20283;-50
2021/11/01 05:09:18;;;;;;;9.53;1.90;;;11.70;99.90;;;;;;5091751;28;20193;-52
2021/11/01 05:11:55;;;;;;;9.40;2.63;;;11.70;99.90;;;;;;5086926;28;20672;-49
2021/11/01 05:14:30;;;;;;;10.23;2.53;;;11.70;99.90;;;;;;5100394;28;20238;-51
2021/11/01 05:17:06;;;;;;;9.00;1.87;;;11.70;99.90;;;;;;5094060;28;20201;-49
2021/11/01 05:19:37;;;;;;;10.03;2.03;;;11.60;99.90;;;;;;5103358;28;20201;-49
2021/11/01 05:22:10;;;;;;;10.10;2.40;;;11.60;99.90;;;;;;5073522;28;20259;-51
2021/11/01 05:24:40;;;;;;;10.20;1.97;;;11.60;99.90;;;;;;5102083;28;20282;-50
2021/11/01 05:27:21;;;;;;;7.07;1.60;;;11.60;99.90;;;;;;5087756;28;20200;-48
2021/11/01 05:29:52;;;;;;;15.60;2.50;;;11.60;99.90;;;;;;5098281;28;20198;-52
2021/11/01 05:32:22;;;;;;;7.33;2.93;;;11.60;99.90;;;;;;5096922;28;20202;-49
2021/11/01 05:34:49;;;;;;;17.53;3.40;;;11.60;99.90;;;;;;5096781;28;20221;-53
2021/11/01 05:37:15;;;;;;;13.17;3.30;;;11.60;99.90;;;;;;5090181;28;20194;-50
2021/11/01 05:39:42;;;;;;;11.23;2.90;;;11.60;99.90;;;;;;5095059;28;20208;-48
2021/11/01 05:42:10;;;;;;;8.37;2.13;;;11.60;99.90;;;;;;5082928;28;20209;-49
2021/11/01 05:44:37;;;;;;;14.77;2.73;;;11.60;99.90;;;;;;5102637;28;20230;-50
2021/11/01 05:47:06;;;;;;;10.53;2.67;;;11.60;99.90;;;;;;5092869;28;20201;-48
2021/11/01 05:49:36;;;;;;;11.20;2.53;;;11.60;99.90;;;;;;5101435;28;20206;-49
2021/11/01 05:52:05;;;;;;;8.83;2.47;;;11.60;99.90;;;;;;5087433;28;20331;-50
2021/11/01 05:54:32;;;;;;;9.67;2.13;;;11.60;99.90;;;;;;5104012;28;20223;-50
2021/11/01 05:57:06;;;;;;;8.77;2.77;;;11.60;99.90;;;;;;5096437;28;20224;-51
2021/11/01 06:02:36;;;;;;;12.30;2.90;;;11.60;99.90;;;;;;5100434;28;20197;-51
2021/11/01 06:05:13;;;;;;;10.73;2.47;;;11.60;99.90;;;;;;5097620;28;20237;-47
2021/11/01 06:07:49;;;;;;;10.53;2.33;;;11.60;99.90;;;;;;5094157;28;20770;-52
2021/11/01 06:10:25;;;;;;;8.10;3.27;;;11.60;99.90;;;;;;5102805;28;20270;-49
2021/11/01 06:15:36;;;;;;;8.43;2.30;;;11.60;99.90;;;;;;5090785;28;20197;-52
2021/11/01 06:18:04;;;;;;;11.77;3.20;;;11.50;99.90;;;;;;5091584;28;20224;-51
2021/11/01 06:20:31;;;;;;;10.27;2.63;;;11.60;99.90;;;;;;5099440;28;20201;-51
2021/11/01 06:22:57;;;;;;;15.13;2.70;;;11.50;99.90;;;;;;5089298;28;20319;-52
2021/11/01 06:25:24;;;;;;;8.93;2.73;;;11.60;99.90;;;;;;5101577;28;20777;-51
2021/11/01 06:27:54;;;;;;;7.53;2.90;;;11.60;99.90;;;;;;5094127;28;20197;-50
2021/11/01 06:30:25;;;;;;;12.03;3.20;;;11.60;99.90;;;;;;5086970;28;21883;-49
2021/11/01 06:33:11;;;;;;;10.97;3.00;;;11.60;99.90;;;;;;5092259;28;20205;-48
2021/11/01 06:44:15;;;;;;;8.67;3.43;;;11.60;99.90;;;;;;5065596;28;20233;-48
2021/11/01 06:52:37;;;;;;;12.17;3.57;;;11.60;99.90;;;;;;5100775;28;20224;-52
2021/11/01 06:55:21;;;;;;;10.73;3.03;;;11.60;99.90;;;;;;5092984;28;20589;-46
2021/11/01 06:58:02;;;;;;;9.83;3.20;;;11.60;99.90;;;;;;5094782;28;20208;-51
2021/11/01 07:14:30;;;;;;;5.77;2.90;;;11.60;99.90;;;;;;5100589;28;20210;-50
2021/11/01 07:17:00;;;;;;;12.30;3.43;;;11.60;99.90;;;;;;5082857;28;20196;-52
2021/11/01 07:19:36;;;;;;;8.90;3.03;;;11.60;99.90;;;;;;5070885;28;20670;-53
2021/11/01 07:22:25;;;;;;;8.87;3.43;;;11.60;99.90;;;;;;5095708;28;20212;-49
2021/11/01 08:22:58;;;;;;;5.03;2.53;;;11.90;99.90;;;;;;5098132;28;20766;-46
2021/11/01 08:25:44;;;;;;;5.77;2.37;;;11.90;99.90;;;;;;5095409;28;20235;-51
2021/11/01 08:28:24;;;;;;;9.43;2.00;;;12.00;99.90;;;;;;5094301;28;20704;-49
2021/11/01 08:36:42;;;;;;;7.43;1.97;;;12.00;99.90;;;;;;5088821;28;20703;-50
2021/11/01 08:42:20;;;;;;;6.03;1.97;;;12.10;99.90;;;;;;5066857;28;20266;-47
2021/11/01 08:47:44;;;;;;;6.97;2.03;;;12.10;99.90;;;;;;5089151;28;20676;-46
2021/11/01 09:04:17;;;;;;;8.93;2.27;;;12.20;99.90;;;;;;5089172;28;20848;-49
2021/11/01 09:20:34;;;;;;;5.50;1.40;;;12.30;99.90;;;;;;5101671;28;20197;-49
2021/11/01 09:23:35;;;;;;;3.87;1.67;;;12.40;99.90;;;;;;5089826;28;20205;-47
2021/11/01 09:26:05;;;;;;;5.40;1.90;;;12.40;99.90;;;;;;5094429;28;20248;-51
2021/11/01 09:28:35;;;;;;;6.80;1.33;;;12.50;99.90;;;;;;5097737;28;20201;-51
2021/11/01 09:36:40;;;;;;;8.03;2.30;;;12.50;99.90;;;;;;5102376;28;20190;-53
2021/11/01 09:41:52;;;;;;;7.23;2.50;;;12.50;99.90;;;;;;5099604;28;20594;-49
2021/11/01 09:44:24;;;;;;;6.10;1.57;;;12.40;99.90;;;;;;5099059;28;20320;-50
2021/11/01 09:46:54;;;;;;;7.90;3.50;;;12.40;99.90;;;;;;5083308;28;20197;-51
2021/11/01 09:49:21;;;;;;;4.27;1.60;;;12.40;99.90;;;;;;5095300;28;20688;-49
2021/11/01 09:51:52;;;;;;;4.67;2.00;;;12.40;99.90;;;;;;5098310;28;20201;-47
2021/11/01 09:54:23;;;;;;;7.77;1.40;;;12.40;99.90;;;;;;5090808;28;20217;-47
2021/11/01 09:57:03;;;;;;;4.83;1.77;;;12.30;99.90;;;;;;5102922;28;20661;-48
2021/11/01 09:59:34;;;;;;;9.30;2.60;;;12.30;99.90;;;;;;5105125;28;20275;-47
2021/11/01 10:02:02;;;;;;;4.20;1.87;;;12.30;99.90;;;;;;5058892;28;20328;-49
2021/11/01 10:04:30;;;;;;;4.13;2.30;;;12.30;99.90;;;;;;5089696;28;20232;-49
2021/11/01 10:07:21;;;;;;;6.27;1.70;;;12.40;99.90;;;;;;5094466;28;20220;-47
2021/11/01 10:09:50;;;;;;;7.20;1.60;;;12.50;99.90;;;;;;5073396;28;20232;-47
2021/11/01 10:12:22;;;;;;;5.83;1.97;;;12.50;99.90;;;;;;5098344;28;20196;-45
2021/11/01 10:14:51;;;;;;;6.30;1.50;;;12.60;99.90;;;;;;5092915;28;20957;-45
2021/11/01 10:17:34;;;;;;;9.57;3.30;;;12.60;99.90;;;;;;5088263;28;20280;-51
2021/11/01 10:20:07;;;;;;;5.13;1.73;;;12.60;99.90;;;;;;5095311;28;20201;-47
2021/11/01 10:22:37;;;;;;;6.63;2.40;;;12.60;99.90;;;;;;5094271;28;20688;-46
2021/11/01 10:25:06;;;;;;;7.80;1.87;;;12.70;99.90;;;;;;5084546;28;20232;-49
2021/11/01 10:27:35;;;;;;;6.37;1.70;;;12.70;99.90;;;;;;5097091;28;20205;-50
2021/11/01 10:30:05;;;;;;;5.73;1.40;;;12.80;99.90;;;;;;5095540;28;20276;-48
2021/11/01 10:32:39;;;;;;;4.47;1.80;;;12.80;99.90;;;;;;5091465;28;20201;-53
2021/11/01 10:35:15;;;;;;;5.63;1.97;;;12.80;99.90;;;;;;5094737;28;20214;-49
2021/11/01 10:38:16;;;;;;;5.83;1.60;;;12.90;99.90;;;;;;5093279;28;20201;-47
2021/11/01 10:40:50;;;;;;;7.00;2.17;;;12.90;99.90;;;;;;5087963;28;20205;-46
2021/11/01 10:43:43;;;;;;;5.63;2.40;;;13.00;99.90;;;;;;5094676;28;20197;-50
2021/11/01 10:46:59;;;;;;;6.47;2.33;;;13.00;99.90;;;;;;5092760;28;20228;-46
2021/11/01 11:12:07;;;;;;;10.50;1.73;;;13.20;99.90;;;;;;5084493;28;20613;-49
2021/11/01 11:14:38;;;;;;;2.63;1.20;;;13.30;99.90;;;;;;5085306;28;20826;-48
2021/11/01 11:17:23;;;;;;;5.63;1.80;;;13.30;99.90;;;;;;5090733;28;20197;-51
2021/11/01 11:20:17;;;;;;;5.20;1.60;;;13.40;99.90;;;;;;5084367;28;20257;-46
2021/11/01 11:31:30;;;;;;;2.83;1.93;;;13.50;99.90;;;;;;5046664;28;20658;-52
2021/11/01 11:42:31;;;;;;;4.23;1.00;;;13.50;99.90;;;;;;5101687;28;20213;-51
2021/11/01 11:48:02;;;;;;;4.20;1.63;;;13.50;99.90;;;;;;5099069;28;20205;-47
2021/11/01 11:50:32;;;;;;;4.07;0.90;;;13.70;99.90;;;;;;5090789;28;20204;-53
2021/11/01 11:53:08;;;;;;;3.47;1.20;;;13.70;99.90;;;;;;5082031;28;20201;-49
2021/11/01 11:55:35;;;;;;;3.30;1.00;;;13.70;99.90;;;;;;5096156;28;20217;-51
2021/11/01 11:58:04;;;;;;;3.93;1.83;;;13.70;99.90;;;;;;5100749;28;20190;-48
2021/11/01 12:00:35;;;;;;;4.47;2.30;;;13.70;99.90;;;;;;5088855;28;20245;-52
2021/11/01 12:03:13;;;;;;;3.13;1.93;;;13.70;99.90;;;;;;5076693;28;20197;-51
2021/11/01 12:05:45;;;;;;;6.47;3.73;;;13.70;99.90;;;;;;5087285;28;20221;-53
2021/11/01 12:08:20;;;;;;;3.90;1.90;;;13.70;99.90;;;;;;5097212;28;20193;-53
2021/11/01 12:19:23;;;;;;;9.17;2.73;;;13.60;99.90;;;;;;5095415;28;20201;-52
2021/11/01 12:21:52;;;;;;;8.13;2.63;;;13.60;99.90;;;;;;5085677;28;20193;-53
2021/11/01 12:24:23;;;;;;;4.40;1.87;;;13.60;99.90;;;;;;5089294;28;20233;-51
2021/11/01 12:27:00;;;;;;;4.63;1.73;;;13.60;99.90;;;;;;5098104;28;20220;-53
2021/11/01 12:29:27;;;;;;;4.57;1.53;;;13.60;99.90;;;;;;5102662;28;20201;-54
2021/11/01 12:32:04;;;;;;;6.13;2.40;;;13.60;99.90;;;;;;5075313;28;22677;-50
2021/11/01 12:34:32;;;;;;;2.87;1.70;;;13.70;99.90;;;;;;5092566;28;20300;-54
2021/11/01 12:37:03;;;;;;;3.50;1.50;;;13.70;99.90;;;;;;5086429;28;20193;-54
2021/11/01 12:39:35;;;;;;;4.60;1.70;;;13.80;99.90;;;;;;5092669;28;20207;-52
2021/11/01 12:59:15;;;;;;;3.03;1.73;;;14.00;99.90;;;;;;5097755;28;20198;-52
2021/11/01 13:01:49;;;;;;;6.10;1.63;;;14.00;99.90;;;;;;5086108;28;20205;-52
2021/11/01 13:04:34;;;;;;;4.73;1.87;;;13.90;99.90;;;;;;5097430;28;20656;-52
2021/11/01 13:07:05;;;;;;;5.40;1.87;;;13.90;99.90;;;;;;5082292;28;20880;-53
2021/11/01 13:09:41;;;;;;;4.50;1.87;;;14.00;99.90;;;;;;5104021;28;20201;-52
2021/11/01 13:12:25;;;;;;;4.33;1.70;;;14.00;99.90;;;;;;5099407;28;20905;-55
2021/11/01 13:15:05;;;;;;;5.13;1.77;;;14.00;99.90;;;;;;5088730;28;22687;-52
2021/11/01 13:18:06;;;;;;;3.17;1.50;;;14.10;99.90;;;;;;5088868;28;20273;-50
2021/11/01 13:20:36;;;;;;;2.37;2.17;;;14.10;99.90;;;;;;5101058;28;20205;-55
2021/11/01 13:23:04;;;;;;;5.50;1.87;;;14.10;99.90;;;;;;5090724;28;20259;-54
2021/11/01 13:25:36;;;;;;;6.00;3.00;;;14.10;99.90;;;;;;5098806;28;20221;-52
2021/11/01 13:28:32;;;;;;;4.30;2.37;;;14.10;99.90;;;;;;5094877;28;20213;-55
2021/11/01 13:36:51;;;;;;;2.87;2.63;;;14.90;99.90;;;;;;5077844;28;20272;-50
2021/11/01 13:39:26;;;;;;;2.57;1.77;;;14.90;99.90;;;;;;5101904;28;20205;-53
2021/11/01 13:41:54;;;;;;;3.70;1.87;;;14.60;99.90;;;;;;5094612;28;20695;-54
2021/11/01 13:44:23;;;;;;;3.03;2.30;;;14.80;99.90;;;;;;5104188;28;20217;-53
2021/11/01 13:46:52;;;;;;;3.87;2.20;;;14.90;99.90;;;;;;5090145;28;20213;-51
2021/11/01 13:49:20;;;;;;;8.87;2.47;;;14.70;99.90;;;;;;5096946;28;20205;-49
2021/11/01 13:51:49;;;;;;;3.13;1.93;;;14.40;99.90;;;;;;5099045;28;20205;-55
2021/11/01 13:54:28;;;;;;;8.27;3.60;;;14.50;99.90;;;;;;5086895;28;20305;-53
2021/11/01 13:57:00;;;;;;;2.87;1.40;;;14.40;99.90;;;;;;5094434;28;20874;-48
2021/11/01 13:59:37;;;;;;;2.63;1.93;;;14.20;99.90;;;;;;5101744;28;20225;-51
2021/11/01 14:02:19;;;;;;;5.77;2.73;;;14.00;99.90;;;;;;5090033;28;20205;-51
2021/11/01 14:13:09;;;;;;;4.17;2.10;;;13.70;99.90;;;;;;5091876;28;23088;-48
2021/11/01 14:16:05;;;;;;;4.40;2.53;;;13.60;99.90;;;;;;5105482;28;20215;-52
2021/11/01 14:18:57;;;;;;;3.93;2.73;;;13.60;99.90;;;;;;5090777;27;20201;-53
2021/11/01 14:27:24;;;;;;;5.33;1.57;;;14.40;99.90;;;;;;5086954;28;20780;-53
2021/11/01 14:35:43;;;;;;;3.00;1.53;;;14.20;99.90;;;;;;5089924;27;20221;-55
2021/11/01 15:12:13;;;;;;;4.17;1.90;;;13.20;99.90;;;;;;5087026;27;20529;-51
2021/11/01 15:14:45;;;;;;;3.73;2.40;;;13.20;99.90;;;;;;5096077;28;20538;-53
2021/11/01 15:17:32;;;;;;;4.47;2.83;;;13.00;99.90;;;;;;5096569;28;20522;-51
2021/11/01 15:20:19;;;;;;;6.40;2.70;;;13.00;99.90;;;;;;5085677;27;20681;-51
2021/11/01 15:22:58;;;;;;;4.23;2.07;;;13.00;99.90;;;;;;5096879;28;20228;-52
2021/11/01 15:28:36;;;;;;;5.43;2.80;;;12.90;99.90;;;;;;5089355;27;20197;-55
2021/11/01 15:39:55;;;;;;;4.27;1.63;;;12.60;99.90;;;;;;5101038;28;20193;-51
2021/11/01 16:18:12;;;;;;;3.10;1.40;;;12.00;99.90;;;;;;5088758;27;20665;-49
2021/11/01 16:20:39;;;;;;;2.87;1.27;;;12.00;99.90;;;;;;5093221;28;20601;-52
2021/11/01 16:23:23;;;;;;;5.17;1.43;;;11.90;99.90;;;;;;5083399;28;20213;-52
2021/11/01 16:25:55;;;;;;;2.73;1.83;;;11.90;99.90;;;;;;5093473;28;20197;-48
2021/11/01 16:28:23;;;;;;;3.57;1.60;;;11.90;99.90;;;;;;5093987;28;20329;-52
2021/11/01 16:31:09;;;;;;;4.97;1.90;;;11.90;99.90;;;;;;5082890;28;20197;-50
2021/11/01 16:33:42;;;;;;;3.97;1.70;;;11.90;99.90;;;;;;5093100;28;20217;-52
2021/11/01 16:36:20;;;;;;;3.50;1.70;;;11.80;99.90;;;;;;5092766;28;20194;-55
2021/11/01 16:38:52;;;;;;;6.57;2.13;;;11.80;99.90;;;;;;5072201;28;20328;-51
2021/11/01 16:41:20;;;;;;;1.33;1.20;;;11.80;99.90;;;;;;5095548;28;20210;-50
2021/11/01 16:43:48;;;;;;;2.80;1.50;;;11.70;99.90;;;;;;5085651;28;20209;-54
2021/11/01 16:46:15;;;;;;;5.43;2.17;;;11.70;99.90;;;;;;5086570;28;20205;-49
2021/11/01 16:48:44;;;;;;;4.33;1.97;;;11.60;99.90;;;;;;5097288;28;20684;-48
2021/11/01 16:51:12;;;;;;;3.13;1.87;;;11.60;99.90;;;;;;5099948;28;20201;-52
2021/11/01 16:53:43;;;;;;;5.33;1.63;;;11.60;99.90;;;;;;5084135;28;20224;-53
2021/11/01 16:56:33;;;;;;;5.40;1.83;;;11.60;99.90;;;;;;5096546;28;20211;-54
2021/11/01 16:59:11;;;;;;;4.60;1.80;;;11.50;99.90;;;;;;5095478;28;20209;-53
2021/11/01 17:01:42;;;;;;;5.37;1.90;;;11.50;99.90;;;;;;5078959;28;20200;-53
2021/11/01 17:04:12;;;;;;;2.67;1.70;;;11.40;99.90;;;;;;5100536;28;20225;-54
2021/11/01 17:06:43;;;;;;;5.30;2.43;;;11.40;99.90;;;;;;5091664;28;20304;-53
2021/11/01 17:09:40;;;;;;;4.13;2.50;;;11.30;99.90;;;;;;5080372;28;20208;-49
2021/11/01 17:23:25;;;;;;;8.87;4.10;;;11.00;99.90;;;;;;5089257;28;20224;-52
2021/11/01 17:26:00;;;;;;;7.80;4.03;;;10.90;99.90;;;;;;5076001;28;21068;-46
2021/11/01 17:28:45;;;;;;;8.33;3.60;;;10.90;99.90;;;;;;5093423;28;20276;-47
2021/11/01 17:31:36;;;;;;;4.10;3.30;;;10.90;99.90;;;;;;5093404;28;20259;-50
2021/11/01 17:37:02;;;;;;;6.40;3.23;;;10.70;99.90;;;;;;5099538;28;20924;-51
2021/11/01 18:38:27;;;;;;;3.80;3.00;;;9.50;99.90;;;;;;5074485;28;20210;-50
2021/11/01 18:41:05;;;;;;;4.77;3.00;;;9.50;99.90;;;;;;5088312;27;20310;-52
2021/11/01 18:46:33;;;;;;;4.83;3.33;;;9.30;99.90;;;;;;5093215;28;20316;-53
2021/11/01 18:51:54;;;;;;;3.40;3.10;;;9.30;99.90;;;;;;5098522;28;20197;-51
2021/11/01 18:54:24;;;;;;;6.63;3.60;;;9.30;99.90;;;;;;5088945;27;20216;-54
2021/11/01 18:56:56;;;;;;;4.87;2.87;;;9.30;99.90;;;;;;5096991;27;20209;-52
2021/11/01 18:59:25;;;;;;;5.70;3.47;;;9.30;99.90;;;;;;5088881;27;20200;-53
2021/11/01 19:01:58;;;;;;;4.30;3.07;;;9.30;99.90;;;;;;5104043;27;20217;-50
2021/11/01 19:04:31;;;;;;;4.53;3.87;;;9.20;99.90;;;;;;5088844;28;20235;-51
2021/11/01 19:07:07;;;;;;;4.23;3.83;;;9.20;99.90;;;;;;5096589;28;20232;-49
2021/11/01 19:09:50;;;;;;;6.30;3.43;;;9.10;99.90;;;;;;5094193;27;20205;-53
2021/11/01 20:02:55;;;;;;;10.20;4.07;;;8.30;99.90;;;;;;5087806;28;20657;-50
2021/11/01 20:05:25;;;;;;;7.07;3.57;;;8.30;99.90;;;;;;5101954;28;20232;-53
2021/11/01 20:11:13;;;;;;;6.20;4.00;;;8.30;99.90;;;;;;5048591;28;20213;-53
2021/11/01 20:13:52;;;;;;;11.27;3.57;;;8.40;99.90;;;;;;5095288;28;20213;-54
2021/11/01 20:16:39;;;;;;;11.23;4.00;;;8.30;99.90;;;;;;5082442;28;20212;-61
2021/11/01 21:25:56;;;;;;;7.40;3.87;;;7.80;99.90;;;;;;5091799;27;20193;-62
2021/11/01 21:28:23;;;;;;;5.10;3.00;;;7.80;99.90;;;;;;5106881;28;20209;-62
2021/11/01 21:30:50;;;;;;;9.53;2.83;;;7.80;99.90;;;;;;5098352;27;20797;-62
2021/11/01 21:33:21;;;;;;;3.67;2.83;;;7.80;99.90;;;;;;5104391;28;20209;-62
2021/11/01 21:35:51;;;;;;;4.00;2.43;;;7.90;99.90;;;;;;5084057;27;20207;-62
2021/11/01 21:38:18;;;;;;;5.40;2.70;;;7.90;99.90;;;;;;5089469;28;20213;-62
2021/11/01 21:40:45;;;;;;;3.70;2.83;;;7.90;99.90;;;;;;5094830;28;20229;-62
2021/11/01 21:43:12;;;;;;;4.40;2.47;;;8.00;99.90;;;;;;5101885;27;20284;-61
2021/11/01 21:45:39;;;;;;;5.20;2.60;;;8.00;99.90;;;;;;5099765;28;20225;-63
2021/11/01 21:48:06;;;;;;;5.73;2.40;;;8.00;99.90;;;;;;5091264;27;20245;-61
2021/11/01 21:50:35;;;;;;;5.47;2.77;;;8.10;99.90;;;;;;5088245;28;20197;-54
2021/11/01 21:53:04;;;;;;;4.73;2.43;;;8.10;99.90;;;;;;5100235;27;20209;-61
2021/11/01 21:55:31;;;;;;;5.93;2.50;;;8.10;99.90;;;;;;5084970;27;20356;-59
2021/11/01 21:58:01;;;;;;;5.70;2.30;;;8.10;99.90;;;;;;5095843;28;20251;-61